sensor_id;sensor_type;location;lat;lon;timestamp;temperature;humidity
32217;DHT22;67098;51.140;4.088;2023-04-04T00:00:31;7.30;61.50
32217;DHT22;67098;51.140;4.088;2023-04-04T00:02:57;7.30;61.40
32217;DHT22;67098;51.140;4.088;2023-04-04T00:05:22;7.30;61.30
32217;DHT22;67098;51.140;4.088;2023-04-04T00:07:48;7.40;61.30
32217;DHT22;67098;51.140;4.088;2023-04-04T00:10:14;7.30;61.20
32217;DHT22;67098;51.140;4.088;2023-04-04T00:12:41;7.30;61.30
32217;DHT22;67098;51.140;4.088;2023-04-04T00:15:07;7.30;61.40
32217;DHT22;67098;51.140;4.088;2023-04-04T00:17:33;7.30;61.40
32217;DHT22;67098;51.140;4.088;2023-04-04T00:19:59;7.20;61.10
32217;DHT22;67098;51.140;4.088;2023-04-04T00:22:26;7.30;61.60
32217;DHT22;67098;51.140;4.088;2023-04-04T00:24:52;7.20;61.50
32217;DHT22;67098;51.140;4.088;2023-04-04T00:27:18;7.20;61.70
32217;DHT22;67098;51.140;4.088;2023-04-04T00:29:43;7.10;61.90
32217;DHT22;67098;51.140;4.088;2023-04-04T00:32:09;7.10;61.90
32217;DHT22;67098;51.140;4.088;2023-04-04T00:34:35;7.10;61.90
32217;DHT22;67098;51.140;4.088;2023-04-04T00:37:01;7.10;61.80
32217;DHT22;67098;51.140;4.088;2023-04-04T00:39:27;7.00;62.00
32217;DHT22;67098;51.140;4.088;2023-04-04T00:41:53;6.90;62.30
32217;DHT22;67098;51.140;4.088;2023-04-04T00:44:18;6.90;62.50
32217;DHT22;67098;51.140;4.088;2023-04-04T00:46:44;6.90;62.40
32217;DHT22;67098;51.140;4.088;2023-04-04T00:49:10;6.90;62.50
32217;DHT22;67098;51.140;4.088;2023-04-04T00:51:35;6.90;62.30
32217;DHT22;67098;51.140;4.088;2023-04-04T00:54:02;6.80;62.60
32217;DHT22;67098;51.140;4.088;2023-04-04T00:56:28;6.90;62.70
32217;DHT22;67098;51.140;4.088;2023-04-04T00:58:55;6.90;62.80
32217;DHT22;67098;51.140;4.088;2023-04-04T01:01:21;6.90;62.80
32217;DHT22;67098;51.140;4.088;2023-04-04T01:03:48;6.80;62.70
32217;DHT22;67098;51.140;4.088;2023-04-04T01:06:14;6.70;63.00
32217;DHT22;67098;51.140;4.088;2023-04-04T01:08:40;6.70;63.00
32217;DHT22;67098;51.140;4.088;2023-04-04T01:11:07;6.60;63.20
32217;DHT22;67098;51.140;4.088;2023-04-04T01:13:33;6.60;63.50
32217;DHT22;67098;51.140;4.088;2023-04-04T01:15:59;6.50;63.40
32217;DHT22;67098;51.140;4.088;2023-04-04T01:18:26;6.50;63.70
32217;DHT22;67098;51.140;4.088;2023-04-04T01:21:06;6.50;63.50
32217;DHT22;67098;51.140;4.088;2023-04-04T01:23:46;6.50;63.40
32217;DHT22;67098;51.140;4.088;2023-04-04T01:26:14;6.50;64.20
32217;DHT22;67098;51.140;4.088;2023-04-04T01:28:39;6.50;63.70
32217;DHT22;67098;51.140;4.088;2023-04-04T01:31:06;6.50;63.50
32217;DHT22;67098;51.140;4.088;2023-04-04T01:33:53;6.50;63.50
32217;DHT22;67098;51.140;4.088;2023-04-04T01:36:40;6.50;63.50
32217;DHT22;67098;51.140;4.088;2023-04-04T01:39:28;6.50;63.50
32217;DHT22;67098;51.140;4.088;2023-04-04T01:41:55;6.50;63.50
32217;DHT22;67098;51.140;4.088;2023-04-04T01:44:23;6.50;63.30
32217;DHT22;67098;51.140;4.088;2023-04-04T01:46:52;6.50;63.30
32217;DHT22;67098;51.140;4.088;2023-04-04T01:49:20;6.50;63.20
32217;DHT22;67098;51.140;4.088;2023-04-04T01:51:45;6.50;63.40
32217;DHT22;67098;51.140;4.088;2023-04-04T01:54:11;6.50;63.30
32217;DHT22;67098;51.140;4.088;2023-04-04T01:56:37;6.40;63.50
32217;DHT22;67098;51.140;4.088;2023-04-04T01:59:03;6.40;63.60
32217;DHT22;67098;51.140;4.088;2023-04-04T02:01:28;6.50;63.70
32217;DHT22;67098;51.140;4.088;2023-04-04T02:03:54;6.50;63.70
32217;DHT22;67098;51.140;4.088;2023-04-04T02:06:19;6.40;63.90
32217;DHT22;67098;51.140;4.088;2023-04-04T02:08:45;6.50;63.80
32217;DHT22;67098;51.140;4.088;2023-04-04T02:11:11;6.50;64.00
32217;DHT22;67098;51.140;4.088;2023-04-04T02:13:37;6.50;64.00
32217;DHT22;67098;51.140;4.088;2023-04-04T02:16:05;6.40;64.00
32217;DHT22;67098;51.140;4.088;2023-04-04T02:18:31;6.40;64.20
32217;DHT22;67098;51.140;4.088;2023-04-04T02:20:58;6.40;64.30
32217;DHT22;67098;51.140;4.088;2023-04-04T02:23:24;6.30;64.10
32217;DHT22;67098;51.140;4.088;2023-04-04T02:25:50;6.30;64.10
32217;DHT22;67098;51.140;4.088;2023-04-04T02:28:16;6.30;64.20
32217;DHT22;67098;51.140;4.088;2023-04-04T02:30:42;6.30;64.20
32217;DHT22;67098;51.140;4.088;2023-04-04T02:33:07;6.20;64.40
32217;DHT22;67098;51.140;4.088;2023-04-04T02:35:33;6.20;64.40
32217;DHT22;67098;51.140;4.088;2023-04-04T02:37:58;6.20;64.40
32217;DHT22;67098;51.140;4.088;2023-04-04T02:40:24;6.20;64.50
32217;DHT22;67098;51.140;4.088;2023-04-04T02:42:50;6.20;64.40
32217;DHT22;67098;51.140;4.088;2023-04-04T02:45:15;6.10;64.40
32217;DHT22;67098;51.140;4.088;2023-04-04T02:47:42;6.10;64.60
32217;DHT22;67098;51.140;4.088;2023-04-04T02:50:13;6.10;64.70
32217;DHT22;67098;51.140;4.088;2023-04-04T02:52:39;6.10;64.60
32217;DHT22;67098;51.140;4.088;2023-04-04T02:55:06;6.10;64.40
32217;DHT22;67098;51.140;4.088;2023-04-04T02:57:32;6.00;64.60
32217;DHT22;67098;51.140;4.088;2023-04-04T02:59:57;6.00;64.80
32217;DHT22;67098;51.140;4.088;2023-04-04T03:02:23;6.00;64.90
32217;DHT22;67098;51.140;4.088;2023-04-04T03:04:49;6.00;65.00
32217;DHT22;67098;51.140;4.088;2023-04-04T03:07:15;5.90;64.90
32217;DHT22;67098;51.140;4.088;2023-04-04T03:09:40;5.90;65.20
32217;DHT22;67098;51.140;4.088;2023-04-04T03:12:09;5.90;65.50
32217;DHT22;67098;51.140;4.088;2023-04-04T03:14:36;5.90;65.80
32217;DHT22;67098;51.140;4.088;2023-04-04T03:17:01;5.90;65.80
32217;DHT22;67098;51.140;4.088;2023-04-04T03:19:27;5.80;65.80
32217;DHT22;67098;51.140;4.088;2023-04-04T03:21:53;5.80;65.70
32217;DHT22;67098;51.140;4.088;2023-04-04T03:24:19;5.80;65.80
32217;DHT22;67098;51.140;4.088;2023-04-04T03:26:44;5.80;65.60
32217;DHT22;67098;51.140;4.088;2023-04-04T03:29:10;5.80;65.60
32217;DHT22;67098;51.140;4.088;2023-04-04T03:31:36;5.70;65.40
32217;DHT22;67098;51.140;4.088;2023-04-04T03:34:01;5.70;65.40
32217;DHT22;67098;51.140;4.088;2023-04-04T03:36:29;5.70;65.40
32217;DHT22;67098;51.140;4.088;2023-04-04T03:38:55;5.70;65.50
32217;DHT22;67098;51.140;4.088;2023-04-04T03:41:21;5.70;65.50
32217;DHT22;67098;51.140;4.088;2023-04-04T03:43:46;5.80;65.80
32217;DHT22;67098;51.140;4.088;2023-04-04T03:46:13;5.80;65.60
32217;DHT22;67098;51.140;4.088;2023-04-04T03:48:38;5.90;65.50
32217;DHT22;67098;51.140;4.088;2023-04-04T03:51:04;5.80;65.70
32217;DHT22;67098;51.140;4.088;2023-04-04T03:53:30;5.70;66.20
32217;DHT22;67098;51.140;4.088;2023-04-04T03:55:55;5.80;66.00
32217;DHT22;67098;51.140;4.088;2023-04-04T03:58:21;5.70;66.00
32217;DHT22;67098;51.140;4.088;2023-04-04T04:00:47;5.80;66.00
32217;DHT22;67098;51.140;4.088;2023-04-04T04:03:13;5.80;66.00
32217;DHT22;67098;51.140;4.088;2023-04-04T04:05:39;5.80;66.70
32217;DHT22;67098;51.140;4.088;2023-04-04T04:08:05;5.80;66.50
32217;DHT22;67098;51.140;4.088;2023-04-04T04:10:32;5.80;66.40
32217;DHT22;67098;51.140;4.088;2023-04-04T04:12:57;5.70;66.40
32217;DHT22;67098;51.140;4.088;2023-04-04T04:15:23;5.70;66.60
32217;DHT22;67098;51.140;4.088;2023-04-04T04:17:49;5.60;66.80
32217;DHT22;67098;51.140;4.088;2023-04-04T04:20:15;5.60;66.90
32217;DHT22;67098;51.140;4.088;2023-04-04T04:22:47;5.60;66.70
32217;DHT22;67098;51.140;4.088;2023-04-04T04:25:16;5.60;67.00
32217;DHT22;67098;51.140;4.088;2023-04-04T04:27:42;5.50;67.40
32217;DHT22;67098;51.140;4.088;2023-04-04T04:30:09;5.40;67.50
32217;DHT22;67098;51.140;4.088;2023-04-04T04:32:34;5.40;67.30
32217;DHT22;67098;51.140;4.088;2023-04-04T04:35:00;5.40;67.20
32217;DHT22;67098;51.140;4.088;2023-04-04T04:37:26;5.40;67.60
32217;DHT22;67098;51.140;4.088;2023-04-04T04:39:52;5.40;67.60
32217;DHT22;67098;51.140;4.088;2023-04-04T04:42:18;5.50;67.50
32217;DHT22;67098;51.140;4.088;2023-04-04T04:44:44;5.50;67.30
32217;DHT22;67098;51.140;4.088;2023-04-04T04:47:09;5.50;67.30
32217;DHT22;67098;51.140;4.088;2023-04-04T04:49:35;5.40;67.20
32217;DHT22;67098;51.140;4.088;2023-04-04T04:52:01;5.40;67.70
32217;DHT22;67098;51.140;4.088;2023-04-04T04:54:27;5.30;67.70
32217;DHT22;67098;51.140;4.088;2023-04-04T04:56:52;5.30;67.70
32217;DHT22;67098;51.140;4.088;2023-04-04T04:59:18;5.30;67.60
32217;DHT22;67098;51.140;4.088;2023-04-04T05:01:44;5.20;67.90
32217;DHT22;67098;51.140;4.088;2023-04-04T05:04:10;5.10;68.40
32217;DHT22;67098;51.140;4.088;2023-04-04T05:06:36;5.20;68.10
32217;DHT22;67098;51.140;4.088;2023-04-04T05:09:03;5.20;68.10
32217;DHT22;67098;51.140;4.088;2023-04-04T05:11:29;5.30;68.00
32217;DHT22;67098;51.140;4.088;2023-04-04T05:13:55;5.30;67.90
32217;DHT22;67098;51.140;4.088;2023-04-04T05:16:21;5.20;68.40
32217;DHT22;67098;51.140;4.088;2023-04-04T05:18:46;5.20;68.60
32217;DHT22;67098;51.140;4.088;2023-04-04T05:21:12;5.20;68.40
32217;DHT22;67098;51.140;4.088;2023-04-04T05:23:37;5.20;68.30
32217;DHT22;67098;51.140;4.088;2023-04-04T05:26:03;5.10;68.70
32217;DHT22;67098;51.140;4.088;2023-04-04T05:28:29;5.10;68.80
32217;DHT22;67098;51.140;4.088;2023-04-04T05:30:54;5.20;68.70
32217;DHT22;67098;51.140;4.088;2023-04-04T05:33:20;5.10;69.10
32217;DHT22;67098;51.140;4.088;2023-04-04T05:35:48;5.10;69.10
32217;DHT22;67098;51.140;4.088;2023-04-04T05:38:14;5.10;69.40
32217;DHT22;67098;51.140;4.088;2023-04-04T05:40:39;5.10;69.70
32217;DHT22;67098;51.140;4.088;2023-04-04T05:43:05;5.00;69.80
32217;DHT22;67098;51.140;4.088;2023-04-04T05:45:31;5.10;70.10
32217;DHT22;67098;51.140;4.088;2023-04-04T05:47:56;5.10;70.00
32217;DHT22;67098;51.140;4.088;2023-04-04T05:50:22;5.10;70.30
32217;DHT22;67098;51.140;4.088;2023-04-04T05:52:47;5.10;70.50
32217;DHT22;67098;51.140;4.088;2023-04-04T05:55:13;5.30;70.60
32217;DHT22;67098;51.140;4.088;2023-04-04T05:57:49;5.30;70.60
32217;DHT22;67098;51.140;4.088;2023-04-04T06:00:16;5.50;70.50
32217;DHT22;67098;51.140;4.088;2023-04-04T06:02:43;5.60;70.20
32217;DHT22;67098;51.140;4.088;2023-04-04T06:05:09;5.70;69.80
32217;DHT22;67098;51.140;4.088;2023-04-04T06:07:36;5.80;70.00
32217;DHT22;67098;51.140;4.088;2023-04-04T06:10:03;6.00;69.50
32217;DHT22;67098;51.140;4.088;2023-04-04T06:12:28;6.20;69.20
32217;DHT22;67098;51.140;4.088;2023-04-04T06:14:54;6.30;67.70
32217;DHT22;67098;51.140;4.088;2023-04-04T06:17:20;6.50;67.20
32217;DHT22;67098;51.140;4.088;2023-04-04T06:19:45;6.80;66.30
32217;DHT22;67098;51.140;4.088;2023-04-04T06:22:11;6.90;66.00
32217;DHT22;67098;51.140;4.088;2023-04-04T06:24:36;7.10;65.60
32217;DHT22;67098;51.140;4.088;2023-04-04T06:27:02;7.40;65.00
32217;DHT22;67098;51.140;4.088;2023-04-04T06:29:28;7.50;64.00
32217;DHT22;67098;51.140;4.088;2023-04-04T06:31:53;7.70;63.10
32217;DHT22;67098;51.140;4.088;2023-04-04T06:34:22;7.70;62.80
32217;DHT22;67098;51.140;4.088;2023-04-04T06:36:48;7.70;62.70
32217;DHT22;67098;51.140;4.088;2023-04-04T06:39:13;7.80;62.20
32217;DHT22;67098;51.140;4.088;2023-04-04T06:41:39;7.60;62.60
32217;DHT22;67098;51.140;4.088;2023-04-04T06:44:05;7.70;62.40
32217;DHT22;67098;51.140;4.088;2023-04-04T06:46:31;7.70;62.60
32217;DHT22;67098;51.140;4.088;2023-04-04T06:48:57;7.80;62.20
32217;DHT22;67098;51.140;4.088;2023-04-04T06:51:23;7.90;62.60
32217;DHT22;67098;51.140;4.088;2023-04-04T06:53:49;8.00;62.20
32217;DHT22;67098;51.140;4.088;2023-04-04T06:56:15;8.10;61.60
32217;DHT22;67098;51.140;4.088;2023-04-04T06:58:41;8.10;61.10
32217;DHT22;67098;51.140;4.088;2023-04-04T07:01:07;8.00;61.30
32217;DHT22;67098;51.140;4.088;2023-04-04T07:03:33;7.90;61.70
32217;DHT22;67098;51.140;4.088;2023-04-04T07:06:02;8.10;61.80
32217;DHT22;67098;51.140;4.088;2023-04-04T07:08:29;8.30;61.90
32217;DHT22;67098;51.140;4.088;2023-04-04T07:10:55;8.50;61.10
32217;DHT22;67098;51.140;4.088;2023-04-04T07:13:21;8.70;60.80
32217;DHT22;67098;51.140;4.088;2023-04-04T07:15:47;9.00;60.40
32217;DHT22;67098;51.140;4.088;2023-04-04T07:18:14;9.20;60.40
32217;DHT22;67098;51.140;4.088;2023-04-04T07:20:40;9.50;59.90
32217;DHT22;67098;51.140;4.088;2023-04-04T07:23:06;9.60;58.60
32217;DHT22;67098;51.140;4.088;2023-04-04T07:25:32;9.80;58.00
32217;DHT22;67098;51.140;4.088;2023-04-04T07:27:57;9.90;57.20
32217;DHT22;67098;51.140;4.088;2023-04-04T07:30:23;10.00;57.10
32217;DHT22;67098;51.140;4.088;2023-04-04T07:32:56;10.20;56.90
32217;DHT22;67098;51.140;4.088;2023-04-04T07:35:22;10.50;56.70
32217;DHT22;67098;51.140;4.088;2023-04-04T07:37:48;10.60;56.10
32217;DHT22;67098;51.140;4.088;2023-04-04T07:40:15;10.70;54.40
32217;DHT22;67098;51.140;4.088;2023-04-04T07:42:44;10.80;54.40
32217;DHT22;67098;51.140;4.088;2023-04-04T07:45:10;11.00;55.10
32217;DHT22;67098;51.140;4.088;2023-04-04T07:47:36;11.20;53.50
32217;DHT22;67098;51.140;4.088;2023-04-04T07:50:02;11.30;53.80
32217;DHT22;67098;51.140;4.088;2023-04-04T07:52:28;11.50;53.50
32217;DHT22;67098;51.140;4.088;2023-04-04T07:54:54;11.70;52.90
32217;DHT22;67098;51.140;4.088;2023-04-04T07:57:20;11.60;52.50
32217;DHT22;67098;51.140;4.088;2023-04-04T07:59:46;11.80;52.00
32217;DHT22;67098;51.140;4.088;2023-04-04T08:02:11;11.90;50.50
32217;DHT22;67098;51.140;4.088;2023-04-04T08:04:37;12.00;50.30
32217;DHT22;67098;51.140;4.088;2023-04-04T08:07:03;12.10;50.90
32217;DHT22;67098;51.140;4.088;2023-04-04T08:09:29;12.30;50.40
32217;DHT22;67098;51.140;4.088;2023-04-04T08:11:59;12.40;49.40
32217;DHT22;67098;51.140;4.088;2023-04-04T08:14:26;12.60;48.60
32217;DHT22;67098;51.140;4.088;2023-04-04T08:16:52;12.70;48.70
32217;DHT22;67098;51.140;4.088;2023-04-04T08:19:18;12.70;47.70
32217;DHT22;67098;51.140;4.088;2023-04-04T08:21:43;12.80;48.00
32217;DHT22;67098;51.140;4.088;2023-04-04T08:24:13;13.10;47.50
32217;DHT22;67098;51.140;4.088;2023-04-04T08:26:39;13.10;46.80
32217;DHT22;67098;51.140;4.088;2023-04-04T08:29:04;13.30;47.10
32217;DHT22;67098;51.140;4.088;2023-04-04T08:31:30;13.60;46.70
32217;DHT22;67098;51.140;4.088;2023-04-04T08:33:56;13.60;45.40
32217;DHT22;67098;51.140;4.088;2023-04-04T08:36:21;13.70;46.80
32217;DHT22;67098;51.140;4.088;2023-04-04T08:38:47;13.80;46.30
32217;DHT22;67098;51.140;4.088;2023-04-04T08:41:13;14.00;46.40
32217;DHT22;67098;51.140;4.088;2023-04-04T08:43:42;14.30;46.30
32217;DHT22;67098;51.140;4.088;2023-04-04T08:46:11;14.60;45.30
32217;DHT22;67098;51.140;4.088;2023-04-04T08:48:39;14.60;43.50
32217;DHT22;67098;51.140;4.088;2023-04-04T08:51:07;14.50;44.10
32217;DHT22;67098;51.140;4.088;2023-04-04T08:53:35;14.60;44.00
32217;DHT22;67098;51.140;4.088;2023-04-04T08:56:01;14.60;43.30
32217;DHT22;67098;51.140;4.088;2023-04-04T08:58:27;14.90;43.80
32217;DHT22;67098;51.140;4.088;2023-04-04T09:00:54;15.00;43.00
32217;DHT22;67098;51.140;4.088;2023-04-04T09:03:23;15.20;42.30
32217;DHT22;67098;51.140;4.088;2023-04-04T09:05:52;15.30;42.00
32217;DHT22;67098;51.140;4.088;2023-04-04T09:08:18;15.20;41.90
32217;DHT22;67098;51.140;4.088;2023-04-04T09:10:45;15.40;42.20
32217;DHT22;67098;51.140;4.088;2023-04-04T09:13:11;15.60;42.40
32217;DHT22;67098;51.140;4.088;2023-04-04T09:15:37;15.70;42.00
32217;DHT22;67098;51.140;4.088;2023-04-04T09:18:05;15.60;41.40
32217;DHT22;67098;51.140;4.088;2023-04-04T09:20:39;15.80;42.00
32217;DHT22;67098;51.140;4.088;2023-04-04T09:23:14;16.00;42.30
32217;DHT22;67098;51.140;4.088;2023-04-04T09:28:14;15.90;40.50
32217;DHT22;67098;51.140;4.088;2023-04-04T09:30:40;15.90;40.40
32217;DHT22;67098;51.140;4.088;2023-04-04T09:33:09;16.20;41.50
32217;DHT22;67098;51.140;4.088;2023-04-04T09:35:39;16.40;41.50
32217;DHT22;67098;51.140;4.088;2023-04-04T09:38:08;16.80;42.30
32217;DHT22;67098;51.140;4.088;2023-04-04T09:40:37;17.00;39.90
32217;DHT22;67098;51.140;4.088;2023-04-04T09:43:06;17.20;40.20
32217;DHT22;67098;51.140;4.088;2023-04-04T09:45:34;17.60;41.40
32217;DHT22;67098;51.140;4.088;2023-04-04T09:48:00;17.80;39.70
32217;DHT22;67098;51.140;4.088;2023-04-04T09:50:27;17.90;38.80
32217;DHT22;67098;51.140;4.088;2023-04-04T09:52:58;18.00;38.60
32217;DHT22;67098;51.140;4.088;2023-04-04T09:55:36;18.10;39.30
32217;DHT22;67098;51.140;4.088;2023-04-04T09:58:13;18.10;38.20
32217;DHT22;67098;51.140;4.088;2023-04-04T10:00:40;18.30;39.10
32217;DHT22;67098;51.140;4.088;2023-04-04T10:03:11;18.40;39.00
32217;DHT22;67098;51.140;4.088;2023-04-04T10:05:37;18.60;38.70
32217;DHT22;67098;51.140;4.088;2023-04-04T10:08:14;18.50;38.40
32217;DHT22;67098;51.140;4.088;2023-04-04T10:10:50;18.70;38.40
32217;DHT22;67098;51.140;4.088;2023-04-04T10:13:26;18.70;38.00
32217;DHT22;67098;51.140;4.088;2023-04-04T10:15:54;19.10;38.30
32217;DHT22;67098;51.140;4.088;2023-04-04T10:18:24;19.40;37.90
32217;DHT22;67098;51.140;4.088;2023-04-04T10:20:55;19.60;36.60
32217;DHT22;67098;51.140;4.088;2023-04-04T10:23:23;19.60;36.20
32217;DHT22;67098;51.140;4.088;2023-04-04T10:25:51;19.00;36.10
32217;DHT22;67098;51.140;4.088;2023-04-04T10:28:17;18.90;36.70
32217;DHT22;67098;51.140;4.088;2023-04-04T10:33:40;19.40;37.30
32217;DHT22;67098;51.140;4.088;2023-04-04T10:36:11;19.60;36.20
32217;DHT22;67098;51.140;4.088;2023-04-04T10:38:43;19.20;35.90
32217;DHT22;67098;51.140;4.088;2023-04-04T10:41:10;18.90;36.90
32217;DHT22;67098;51.140;4.088;2023-04-04T10:43:44;19.00;37.00
32217;DHT22;67098;51.140;4.088;2023-04-04T10:46:16;19.50;36.70
32217;DHT22;67098;51.140;4.088;2023-04-04T10:48:44;19.90;36.30
32217;DHT22;67098;51.140;4.088;2023-04-04T10:51:10;20.30;36.10
32217;DHT22;67098;51.140;4.088;2023-04-04T10:53:38;20.70;36.10
32217;DHT22;67098;51.140;4.088;2023-04-04T10:56:04;20.70;33.90
32217;DHT22;67098;51.140;4.088;2023-04-04T10:58:31;20.70;34.00
32217;DHT22;67098;51.140;4.088;2023-04-04T11:00:58;20.90;34.10
32217;DHT22;67098;51.140;4.088;2023-04-04T11:03:24;21.00;33.50
32217;DHT22;67098;51.140;4.088;2023-04-04T11:05:50;21.30;34.70
32217;DHT22;67098;51.140;4.088;2023-04-04T11:08:25;21.60;34.80
32217;DHT22;67098;51.140;4.088;2023-04-04T11:10:52;21.90;34.40
32217;DHT22;67098;51.140;4.088;2023-04-04T11:13:31;22.00;34.30
32217;DHT22;67098;51.140;4.088;2023-04-04T11:21:03;22.20;33.10
32217;DHT22;67098;51.140;4.088;2023-04-04T11:26:12;21.50;32.00
32217;DHT22;67098;51.140;4.088;2023-04-04T11:34:04;21.90;33.00
32217;DHT22;67098;51.140;4.088;2023-04-04T11:44:17;21.90;31.70
32217;DHT22;67098;51.140;4.088;2023-04-04T11:46:44;21.90;32.50
32217;DHT22;67098;51.140;4.088;2023-04-04T11:49:13;22.30;32.20
32217;DHT22;67098;51.140;4.088;2023-04-04T11:51:39;22.20;32.40
32217;DHT22;67098;51.140;4.088;2023-04-04T11:54:14;22.70;32.80
32217;DHT22;67098;51.140;4.088;2023-04-04T11:56:44;23.10;33.00
32217;DHT22;67098;51.140;4.088;2023-04-04T11:59:10;23.20;32.00
32217;DHT22;67098;51.140;4.088;2023-04-04T12:01:39;23.70;32.80
32217;DHT22;67098;51.140;4.088;2023-04-04T12:04:05;24.10;31.80
32217;DHT22;67098;51.140;4.088;2023-04-04T12:06:31;24.10;31.90
32217;DHT22;67098;51.140;4.088;2023-04-04T12:09:04;24.20;31.60
32217;DHT22;67098;51.140;4.088;2023-04-04T12:11:34;23.70;31.00
32217;DHT22;67098;51.140;4.088;2023-04-04T12:14:00;23.70;31.50
32217;DHT22;67098;51.140;4.088;2023-04-04T12:16:27;23.80;31.30
32217;DHT22;67098;51.140;4.088;2023-04-04T12:18:53;23.70;31.10
32217;DHT22;67098;51.140;4.088;2023-04-04T12:21:19;23.80;31.30
32217;DHT22;67098;51.140;4.088;2023-04-04T12:23:47;23.80;31.60
32217;DHT22;67098;51.140;4.088;2023-04-04T12:26:15;23.90;30.60
32217;DHT22;67098;51.140;4.088;2023-04-04T12:28:41;23.90;30.60
32217;DHT22;67098;51.140;4.088;2023-04-04T12:31:10;24.30;31.40
32217;DHT22;67098;51.140;4.088;2023-04-04T12:33:39;24.10;30.00
32217;DHT22;67098;51.140;4.088;2023-04-04T12:36:05;23.80;29.90
32217;DHT22;67098;51.140;4.088;2023-04-04T12:38:33;23.70;29.70
32217;DHT22;67098;51.140;4.088;2023-04-04T12:41:04;23.80;29.90
32217;DHT22;67098;51.140;4.088;2023-04-04T12:43:33;23.80;30.40
32217;DHT22;67098;51.140;4.088;2023-04-04T12:45:59;23.50;30.00
32217;DHT22;67098;51.140;4.088;2023-04-04T12:48:26;23.10;30.20
32217;DHT22;67098;51.140;4.088;2023-04-04T12:50:54;23.30;30.30
32217;DHT22;67098;51.140;4.088;2023-04-04T12:53:26;23.60;30.50
32217;DHT22;67098;51.140;4.088;2023-04-04T12:55:53;23.70;30.30
32217;DHT22;67098;51.140;4.088;2023-04-04T12:58:21;24.00;30.10
32217;DHT22;67098;51.140;4.088;2023-04-04T13:00:51;24.10;30.30
32217;DHT22;67098;51.140;4.088;2023-04-04T13:03:20;24.30;30.00
32217;DHT22;67098;51.140;4.088;2023-04-04T13:05:47;24.50;29.60
32217;DHT22;67098;51.140;4.088;2023-04-04T13:08:14;24.80;29.80
32217;DHT22;67098;51.140;4.088;2023-04-04T13:13:38;25.10;29.50
32217;DHT22;67098;51.140;4.088;2023-04-04T13:16:33;24.90;29.70
32217;DHT22;67098;51.140;4.088;2023-04-04T13:19:02;24.60;29.80
32217;DHT22;67098;51.140;4.088;2023-04-04T13:21:28;24.60;30.10
32217;DHT22;67098;51.140;4.088;2023-04-04T13:23:55;24.80;30.10
32217;DHT22;67098;51.140;4.088;2023-04-04T13:26:20;24.90;29.50
32217;DHT22;67098;51.140;4.088;2023-04-04T13:28:47;25.10;29.20
32217;DHT22;67098;51.140;4.088;2023-04-04T13:31:12;25.20;29.30
32217;DHT22;67098;51.140;4.088;2023-04-04T13:33:40;25.00;29.50
32217;DHT22;67098;51.140;4.088;2023-04-04T13:36:06;24.70;29.40
32217;DHT22;67098;51.140;4.088;2023-04-04T13:38:32;24.70;29.40
32217;DHT22;67098;51.140;4.088;2023-04-04T13:40:58;24.80;28.80
32217;DHT22;67098;51.140;4.088;2023-04-04T13:43:24;24.70;29.00
32217;DHT22;67098;51.140;4.088;2023-04-04T13:45:49;25.10;29.50
32217;DHT22;67098;51.140;4.088;2023-04-04T13:48:15;25.40;29.60
32217;DHT22;67098;51.140;4.088;2023-04-04T13:50:42;25.70;29.00
32217;DHT22;67098;51.140;4.088;2023-04-04T13:53:11;25.70;29.20
32217;DHT22;67098;51.140;4.088;2023-04-04T13:55:37;25.90;29.80
32217;DHT22;67098;51.140;4.088;2023-04-04T13:58:04;25.60;29.40
32217;DHT22;67098;51.140;4.088;2023-04-04T14:00:29;25.60;30.00
32217;DHT22;67098;51.140;4.088;2023-04-04T14:02:56;25.40;29.40
32217;DHT22;67098;51.140;4.088;2023-04-04T14:05:22;25.10;29.60
32217;DHT22;67098;51.140;4.088;2023-04-04T14:07:48;25.00;29.50
32217;DHT22;67098;51.140;4.088;2023-04-04T14:10:14;24.90;29.00
32217;DHT22;67098;51.140;4.088;2023-04-04T14:12:41;24.70;29.80
32217;DHT22;67098;51.140;4.088;2023-04-04T14:15:07;24.80;29.90
32217;DHT22;67098;51.140;4.088;2023-04-04T14:17:34;25.00;29.60
32217;DHT22;67098;51.140;4.088;2023-04-04T14:19:59;25.20;29.30
32217;DHT22;67098;51.140;4.088;2023-04-04T14:22:25;25.10;29.10
32217;DHT22;67098;51.140;4.088;2023-04-04T14:24:51;25.00;29.30
32217;DHT22;67098;51.140;4.088;2023-04-04T14:27:17;24.90;29.50
32217;DHT22;67098;51.140;4.088;2023-04-04T14:29:42;25.00;29.70
32217;DHT22;67098;51.140;4.088;2023-04-04T14:32:09;25.10;29.70
32217;DHT22;67098;51.140;4.088;2023-04-04T14:34:35;25.50;29.80
32217;DHT22;67098;51.140;4.088;2023-04-04T14:37:01;25.40;29.10
32217;DHT22;67098;51.140;4.088;2023-04-04T14:39:27;25.30;29.70
32217;DHT22;67098;51.140;4.088;2023-04-04T14:41:53;25.20;29.30
32217;DHT22;67098;51.140;4.088;2023-04-04T14:44:18;25.20;29.30
32217;DHT22;67098;51.140;4.088;2023-04-04T14:46:46;25.10;29.30
32217;DHT22;67098;51.140;4.088;2023-04-04T14:49:12;25.30;29.70
32217;DHT22;67098;51.140;4.088;2023-04-04T14:51:37;25.60;29.50
32217;DHT22;67098;51.140;4.088;2023-04-04T14:54:03;25.70;29.40
32217;DHT22;67098;51.140;4.088;2023-04-04T14:56:29;25.30;29.40
32217;DHT22;67098;51.140;4.088;2023-04-04T14:58:55;25.40;29.30
32217;DHT22;67098;51.140;4.088;2023-04-04T15:01:21;25.30;29.50
32217;DHT22;67098;51.140;4.088;2023-04-04T15:03:48;25.20;29.20
32217;DHT22;67098;51.140;4.088;2023-04-04T15:06:13;25.30;29.50
32217;DHT22;67098;51.140;4.088;2023-04-04T15:08:39;25.40;29.10
32217;DHT22;67098;51.140;4.088;2023-04-04T15:11:05;25.30;29.10
32217;DHT22;67098;51.140;4.088;2023-04-04T15:13:32;25.20;28.80
32217;DHT22;67098;51.140;4.088;2023-04-04T15:15:57;25.10;28.70
32217;DHT22;67098;51.140;4.088;2023-04-04T15:18:25;25.00;29.10
32217;DHT22;67098;51.140;4.088;2023-04-04T15:20:51;24.70;28.60
32217;DHT22;67098;51.140;4.088;2023-04-04T15:23:17;24.70;29.00
32217;DHT22;67098;51.140;4.088;2023-04-04T15:25:42;24.70;29.20
32217;DHT22;67098;51.140;4.088;2023-04-04T15:28:08;24.70;29.40
32217;DHT22;67098;51.140;4.088;2023-04-04T15:30:34;24.50;29.50
32217;DHT22;67098;51.140;4.088;2023-04-04T15:32:59;24.20;29.10
32217;DHT22;67098;51.140;4.088;2023-04-04T15:35:25;24.00;29.30
32217;DHT22;67098;51.140;4.088;2023-04-04T15:37:51;23.90;29.10
32217;DHT22;67098;51.140;4.088;2023-04-04T15:40:17;23.50;29.40
32217;DHT22;67098;51.140;4.088;2023-04-04T15:42:43;23.30;29.30
32217;DHT22;67098;51.140;4.088;2023-04-04T15:45:12;23.00;29.50
32217;DHT22;67098;51.140;4.088;2023-04-04T15:47:38;22.70;29.70
32217;DHT22;67098;51.140;4.088;2023-04-04T15:50:04;22.10;29.60
32217;DHT22;67098;51.140;4.088;2023-04-04T15:52:30;21.80;30.20
32217;DHT22;67098;51.140;4.088;2023-04-04T15:54:56;21.60;30.40
32217;DHT22;67098;51.140;4.088;2023-04-04T15:57:22;21.40;30.30
32217;DHT22;67098;51.140;4.088;2023-04-04T15:59:47;21.50;30.70
32217;DHT22;67098;51.140;4.088;2023-04-04T16:02:14;21.60;31.10
32217;DHT22;67098;51.140;4.088;2023-04-04T16:04:40;21.40;31.10